Map

Track Data

SID SEASON NUMBER BASIN SUBBASIN NAME ISO_TIME NATURE LAT LON WMO_WIND WMO_PRES WMO_AGENCY TRACK_TYPE DIST2LAND LANDFALL IFLAG USA_AGENCY USA_ATCF_ID USA_LAT USA_LON USA_RECORD USA_STATUS USA_WIND USA_PRES USA_SSHS USA_R34_NE USA_R34_SE USA_R34_SW USA_R34_NW USA_R50_NE USA_R50_SE USA_R50_SW USA_R50_NW USA_R64_NE USA_R64_SE USA_R64_SW USA_R64_NW USA_POCI USA_ROCI USA_RMW USA_EYE TOKYO_LAT TOKYO_LON TOKYO_GRADE TOKYO_WIND TOKYO_PRES TOKYO_R50_DIR TOKYO_R50_LONG TOKYO_R50_SHORT TOKYO_R30_DIR TOKYO_R30_LONG TOKYO_R30_SHORT TOKYO_LAND CMA_LAT CMA_LON CMA_CAT CMA_WIND CMA_PRES HKO_LAT HKO_LON HKO_CAT HKO_WIND HKO_PRES NEWDELHI_LAT NEWDELHI_LON NEWDELHI_GRADE NEWDELHI_WIND NEWDELHI_PRES NEWDELHI_CI NEWDELHI_DP NEWDELHI_POCI REUNION_LAT REUNION_LON REUNION_TYPE REUNION_WIND REUNION_PRES REUNION_TNUM REUNION_CI REUNION_RMW REUNION_R34_NE REUNION_R34_SE REUNION_R34_SW REUNION_R34_NW REUNION_R50_NE REUNION_R50_SE REUNION_R50_SW REUNION_R50_NW REUNION_R64_NE REUNION_R64_SE REUNION_R64_SW REUNION_R64_NW BOM_LAT BOM_LON BOM_TYPE BOM_WIND BOM_PRES BOM_TNUM BOM_CI BOM_RMW BOM_R34_NE BOM_R34_SE BOM_R34_SW BOM_R34_NW BOM_R50_NE BOM_R50_SE BOM_R50_SW BOM_R50_NW BOM_R64_NE BOM_R64_SE BOM_R64_SW BOM_R64_NW BOM_ROCI BOM_POCI BOM_EYE BOM_POS_METHOD BOM_PRES_METHOD NADI_LAT NADI_LON NADI_CAT NADI_WIND NADI_PRES WELLINGTON_LAT WELLINGTON_LON WELLINGTON_WIND WELLINGTON_PRES DS824_LAT DS824_LON DS824_STAGE DS824_WIND DS824_PRES TD9636_LAT TD9636_LON TD9636_STAGE TD9636_WIND TD9636_PRES TD9635_LAT TD9635_LON TD9635_WIND TD9635_PRES TD9635_ROCI NEUMANN_LAT NEUMANN_LON NEUMANN_CLASS NEUMANN_WIND NEUMANN_PRES MLC_LAT MLC_LON MLC_CLASS MLC_WIND MLC_PRES USA_GUST BOM_GUST BOM_GUST_PER REUNION_GUST REUNION_GUST_PER USA_SEAHGT USA_SEARAD_NE USA_SEARAD_SE USA_SEARAD_SW USA_SEARAD_NW STORM_SPEED STORM_DIR
1957221N14252 1957 42 EP MM NOT_NAMED 1957-08-09 00:00:00 TS 14.2000 -108.300 75 hurdat_epa main 672 672 O________OO___ hurdat_epa EP031957 14.2000 -108.300 HU 75 1 14.2000 -108.300 TC 75 14.2000 -108.300 4 11 290
1957221N14252 1957 42 EP MM NOT_NAMED 1957-08-09 03:00:00 TS 14.3870 -108.821 main 685 685 P________PP___ EP031957 14.3678 -108.823 HU 75 1 14.3678 -108.823 TC 75 14.4637 -108.814 4 11 294
1957221N14252 1957 42 EP MM NOT_NAMED 1957-08-09 06:00:00 TS 14.6263 -109.297 75 hurdat_epa main 702 694 O________OP___ hurdat_epa EP031957 14.6000 -109.300 HU 75 1 14.6000 -109.300 TC 75 14.7314 -109.283 4 10 304
1957221N14252 1957 42 EP MM NOT_NAMED 1957-08-09 09:00:00 TS 14.9496 -109.678 main 708 693 P________PP___ EP031957 14.9349 -109.682 HU 75 1 14.9349 -109.682 TC 75 15.0083 -109.661 4 9 319
1957221N14252 1957 42 EP MM NOT_NAMED 1957-08-09 12:00:00 TS 15.3000 -109.900 75 hurdat_epa main 693 669 O________OO___ hurdat_epa EP031957 15.3000 -109.900 HU 75 1 15.3000 -109.900 TC 75 15.3000 -109.900 4 7 341
1957221N14252 1957 42 EP MM NOT_NAMED 1957-08-09 15:00:00 TS 15.6077 -109.911 main 669 638 P________PP___ EP031957 15.6074 -109.895 HU 75 1 15.6074 -109.895 TC 75 15.6086 -109.974 4 6 6
1957221N14252 1957 42 EP MM NOT_NAMED 1957-08-09 18:00:00 TS 15.9044 -109.827 75 hurdat_epa main 638 616 O________OP___ hurdat_epa EP031957 15.9000 -109.800 HU 75 1 15.9000 -109.800 TC 75 15.9220 -109.934 4 6 11
1957221N14252 1957 42 EP MM NOT_NAMED 1957-08-09 21:00:00 TS 16.2169 -109.786 main 616 595 P________PP___ EP031957 16.2150 -109.770 HU 75 1 16.2150 -109.770 TC 75 16.2244 -109.852 4 6 2
1957221N14252 1957 42 EP MM NOT_NAMED 1957-08-10 00:00:00 TS 16.5000 -109.800 75 hurdat_epa main 595 588 O________OO___ hurdat_epa EP031957 16.5000 -109.800 HU 75 1 16.5000 -109.800 TC 75 16.5000 -109.800 4 5 345
1957221N14252 1957 42 EP MM NOT_NAMED 1957-08-10 03:00:00 TS 16.7137 -109.924 main 590 586 P________PP___ EP031957 16.7150 -109.935 HU 75 1 16.7150 -109.935 TC 75 16.7085 -109.882 4 5 326
1957221N14252 1957 42 EP MM NOT_NAMED 1957-08-10 06:00:00 TS 16.8985 -110.081 75 hurdat_epa main 595 589 O________OP___ hurdat_epa EP031957 16.9000 -110.100 HU 75 1 16.9000 -110.100 TC 75 16.8926 -110.005 4 4 324
1957221N14252 1957 42 EP MM NOT_NAMED 1957-08-10 09:00:00 TS 17.0781 -110.196 main 592 586 P________PP___ EP031957 17.0775 -110.208 HU 75 1 17.0775 -110.208 TC 75 17.0804 -110.151 4 5 332
1957221N14252 1957 42 EP MM NOT_NAMED 1957-08-10 12:00:00 TS 17.3000 -110.300 75 hurdat_epa main 589 577 O________OO___ hurdat_epa EP031957 17.3000 -110.300 HU 75 1 17.3000 -110.300 TC 75 17.3000 -110.300 4 6 341
1957221N14252 1957 42 EP MM NOT_NAMED 1957-08-10 15:00:00 TS 17.6266 -110.394 main 581 550 P________PP___ EP031957 17.6350 -110.393 HU 75 1 17.6350 -110.393 TC 75 17.5930 -110.401 4 7 344
1957221N14252 1957 42 EP MM NOT_NAMED 1957-08-10 18:00:00 TS 17.9839 -110.501 75 hurdat_epa main 550 518 O________OP___ hurdat_epa EP031957 18.0000 -110.500 HU 75 1 18.0000 -110.500 TC 75 17.9197 -110.506 4 7 341
1957221N14252 1957 42 EP MM NOT_NAMED 1957-08-10 21:00:00 TS 18.2923 -110.629 main 518 488 P________PP___ EP031957 18.3000 -110.628 HU 75 1 18.3000 -110.628 TC 75 18.2617 -110.632 4 7 335
1957221N14252 1957 42 EP MM NOT_NAMED 1957-08-11 00:00:00 TS 18.6000 -110.800 75 hurdat_epa main 488 459 O________OO___ hurdat_epa EP031957 18.6000 -110.800 HU 75 1 18.6000 -110.800 TC 75 18.6000 -110.800 4 8 330
1957221N14252 1957 42 EP MM NOT_NAMED 1957-08-11 03:00:00 TS 18.9523 -111.027 main 448 424 P________PP___ EP031957 18.9575 -111.027 HU 75 1 18.9575 -111.027 TC 75 18.9316 -111.028 4 8 326
1957221N14252 1957 42 EP MM NOT_NAMED 1957-08-11 06:00:00 TS 19.2905 -111.299 75 hurdat_epa main 424 404 O________OP___ hurdat_epa EP031957 19.3000 -111.300 HU 75 1 19.3000 -111.300 TC 75 19.2526 -111.297 4 8 319
1957221N14252 1957 42 EP MM NOT_NAMED 1957-08-11 09:00:00 TS 19.5734 -111.593 main 404 393 P________PP___ EP031957 19.5800 -111.593 HU 75 1 19.5800 -111.593 TC 75 19.5472 -111.593 4 8 312
1957221N14252 1957 42 EP MM NOT_NAMED 1957-08-11 12:00:00 TS 19.8000 -111.900 75 hurdat_epa main 398 394 O________OO___ hurdat_epa EP031957 19.8000 -111.900 HU 75 1 19.8000 -111.900 TC 75 19.8000 -111.900 4 7 305
1957221N14252 1957 42 EP MM NOT_NAMED 1957-08-11 15:00:00 TS 19.9615 -112.192 main 396 396 P________PP___ EP031957 19.9649 -112.200 HU 75 1 19.9649 -112.200 TC 75 19.9478 -112.158 4 6 298
1957221N14252 1957 42 EP MM NOT_NAMED 1957-08-11 18:00:00 TS 20.0923 -112.486 75 hurdat_epa main 406 404 O________OP___ hurdat_epa EP031957 20.1000 -112.500 HU 75 1 20.1000 -112.500 TC 75 20.0615 -112.428 4 6 295
1957221N14252 1957 42 EP MM NOT_NAMED 1957-08-11 21:00:00 TS 20.2087 -112.757 main 418 417 P________PP___ EP031957 20.2122 -112.763 HU 75 1 20.2122 -112.763 TC 75 20.1945 -112.733 4 7 298
1957221N14252 1957 42 EP MM NOT_NAMED 1957-08-12 00:00:00 TS 20.4000 -113.100 75 hurdat_epa main 425 425 O________OO___ hurdat_epa EP031957 20.4000 -113.100 HU 75 1 20.4000 -113.100 TC 75 20.4000 -113.100 4 10 304
1957221N14252 1957 42 EP MM NOT_NAMED 1957-08-12 03:00:00 TS 20.7593 -113.618 main 439 437 P________PP___ EP031957 20.7552 -113.620 HU 75 1 20.7552 -113.620 TC 75 20.7756 -113.611 4 13 308
1957221N14252 1957 42 EP MM NOT_NAMED 1957-08-12 06:00:00 TS 21.2044 -114.195 75 hurdat_epa main 443 430 O________OP___ hurdat_epa EP031957 21.2000 -114.200 HU 75 1 21.2000 -114.200 TC 75 21.2219 -114.176 4 14 311
1957221N14252 1957 42 EP MM NOT_NAMED 1957-08-12 09:00:00 TS 21.6745 -114.748 main 427 423 P________PP___ EP031957 21.6726 -114.752 HU 75 1 21.6726 -114.752 TC 75 21.6820 -114.729 4 13 314
1957221N14252 1957 42 EP MM NOT_NAMED 1957-08-12 12:00:00 TS 22.1000 -115.200 75 hurdat_epa main 429 421 O________OO___ hurdat_epa EP031957 22.1000 -115.200 HU 75 1 22.1000 -115.200 TC 75 22.1000 -115.200 4 10 317
1957221N14252 1957 42 EP MM NOT_NAMED 1957-08-12 15:00:00 TS 22.3844 -115.451 main 429 422 P________PP___ EP031957 22.3797 -115.446 HU 75 1 22.3797 -115.446 TC 75 22.4031 -115.475 4 6 323
1957221N14252 1957 42 EP MM NOT_NAMED 1957-08-12 18:00:00 TS 22.6117 -115.613 75 hurdat_epa main 424 417 O________OP___ hurdat_epa EP031957 22.6000 -115.600 HU 75 1 22.6000 -115.600 TC 75 22.6584 -115.662 4 6 327
1957221N14252 1957 42 EP MM NOT_NAMED 1957-08-12 21:00:00 TS 22.8628 -115.792 main 423 421 P________PP___ EP031957 22.8574 -115.785 HU 75 1 22.8574 -115.785 TC 75 22.8846 -115.818 4 6 324
1957221N14252 1957 42 EP MM NOT_NAMED 1957-08-13 00:00:00 TS 23.1000 -116.000 75 hurdat_epa main 430 430 O________OO___ hurdat_epa EP031957 23.1000 -116.000 HU 75 1 23.1000 -116.000 TC 75 23.1000 -116.000 4 6 315
1957221N14252 1957 42 EP MM NOT_NAMED 1957-08-13 03:00:00 TS 23.3031 -116.274 main 448 448 P________PP___ EP031957 23.3000 -116.278 HU 75 1 23.3000 -116.278 TC 75 23.3156 -116.261 4 7 307
1957221N14252 1957 42 EP MM NOT_NAMED 1957-08-13 06:00:00 TS 23.5054 -116.592 75 hurdat_epa main 467 459 O________OP___ hurdat_epa EP031957 23.5000 -116.600 HU 75 1 23.5000 -116.600 TC 75 23.5269 -116.561 4 7 306
1957221N14252 1957 42 EP MM NOT_NAMED 1957-08-13 09:00:00 TS 23.7318 -116.917 main 464 454 P________PP___ EP031957 23.7273 -116.920 HU 75 1 23.7273 -116.920 TC 75 23.7497 -116.906 4 8 307
1957221N14252 1957 42 EP MM NOT_NAMED 1957-08-13 12:00:00 TS 24.0000 -117.300 75 hurdat_epa main 460 456 O________OO___ hurdat_epa EP031957 24.0000 -117.300 HU 75 1 24.0000 -117.300 TC 75 24.0000 -117.300 4 10 308
1957221N14252 1957 42 EP MM NOT_NAMED 1957-08-13 15:00:00 TS 24.3359 -117.777 main 469 459 P________PP___ EP031957 24.3425 -117.777 HU 75 1 24.3425 -117.777 TC 75 24.3092 -117.777 4 11 307
1957221N14252 1957 42 EP MM NOT_NAMED 1957-08-13 18:00:00 TS 24.6887 -118.300 75 hurdat_epa main 469 468 O________OP___ hurdat_epa EP031957 24.7000 -118.300 HU 75 1 24.7000 -118.300 TC 75 24.6437 -118.298 4 12 305
1957221N14252 1957 42 EP MM NOT_NAMED 1957-08-13 21:00:00 TS 25.0082 -118.816 main 483 483 P________PP___ EP031957 25.0150 -118.815 HU 75 1 25.0150 -118.815 TC 75 24.9811 -118.821 4 11 304
1957221N14252 1957 42 EP MM NOT_NAMED 1957-08-14 00:00:00 TS 25.3000 -119.300 75 hurdat_epa main 504 504 O________OO___ hurdat_epa EP031957 25.3000 -119.300 HU 75 1 25.3000 -119.300 TC 75 25.3000 -119.300 4 10 303
1957221N14252 1957 42 EP MM NOT_NAMED 1957-08-14 03:00:00 TS 25.5553 -119.734 main 522 522 P________PP___ EP031957 25.5574 -119.738 HU 75 1 25.5574 -119.738 TC 75 25.5468 -119.721 4 9 305
1957221N14252 1957 42 EP MM NOT_NAMED 1957-08-14 06:00:00 TS 25.7954 -120.097 75 hurdat_epa main 548 548 O________OP___ hurdat_epa EP031957 25.8000 -120.100 HU 75 1 25.8000 -120.100 TC 75 25.7771 -120.086 4 8 308
1957221N14252 1957 42 EP MM NOT_NAMED 1957-08-14 09:00:00 TS 26.0257 -120.393 main 567 563 P________PP___ EP031957 26.0274 -120.395 HU 75 1 26.0274 -120.395 TC 75 26.0189 -120.383 4 7 318
1957221N14252 1957 42 EP MM NOT_NAMED 1957-08-14 12:00:00 TS 26.3000 -120.600 75 hurdat_epa main 575 572 O________OO___ hurdat_epa EP031957 26.3000 -120.600 HU 75 1 26.3000 -120.600 TC 75 26.3000 -120.600 4 7 334
1957221N14252 1957 42 EP MM NOT_NAMED 1957-08-14 15:00:00 TS 26.6765 -120.741 main 574 574 P________PP___ EP031957 26.6774 -120.738 HU 75 1 26.6774 -120.738 TC 75 26.6726 -120.754 4 8 347
1957221N14252 1957 42 EP MM NOT_NAMED 1957-08-14 18:00:00 TS 27.0969 -120.806 75 hurdat_epa main 575 555 O________OP___ hurdat_epa EP031957 27.1000 -120.800 HU 75 1 27.1000 -120.800 TC 75 27.0844 -120.828 4 8 354
1957221N14252 1957 42 EP MM NOT_NAMED 1957-08-14 21:00:00 TS 27.5128 -120.826 main 555 534 P________PP___ EP031957 27.5150 -120.823 HU 75 1 27.5150 -120.823 TC 75 27.5041 -120.838 4 8 0
1957221N14252 1957 42 EP MM NOT_NAMED 1957-08-15 00:00:00 TS 27.9000 -120.800 75 hurdat_epa main 534 521 O________OO___ hurdat_epa EP031957 27.9000 -120.800 HU 75 1 27.9000 -120.800 TC 75 27.9000 -120.800 4 7 5
1957221N14252 1957 42 EP MM NOT_NAMED 1957-08-15 03:00:00 TS 28.2216 -120.764 main 521 499 P________PP___ EP031957 28.2150 -120.772 HU 75 1 28.2150 -120.772 TC 75 28.2483 -120.729 4 6 9
1957221N14252 1957 42 EP MM NOT_NAMED 1957-08-15 06:00:00 TS 28.5111 -120.687 75 hurdat_epa main 499 478 O________OP___ hurdat_epa EP031957 28.5000 -120.700 HU 75 1 28.5000 -120.700 TC 75 28.5553 -120.633 4 6 17
1957221N14252 1957 42 EP MM NOT_NAMED 1957-08-15 09:00:00 TS 28.8030 -120.558 main 478 447 P________PP___ EP031957 28.7951 -120.568 HU 75 1 28.7951 -120.568 TC 75 28.8346 -120.521 4 6 23
1957221N14252 1957 42 EP MM NOT_NAMED 1957-08-15 12:00:00 TS 29.1000 -120.400 75 hurdat_epa main 447 O________OO___ hurdat_epa EP031957 29.1000 -120.400 HU 75 1 29.1000 -120.400 TC 75 29.1000 -120.400 4 7 24

About IBTrACS Database

This database is a web-friendly format of International Best Track Archive for Climate Stewardship (IBTrACS), a global best track data archive curated by NOAA dating back to 1842.

Updated: 2021-11-26